Time;durP1;ratioP1;P1;durP2;ratioP2;P2;SDS_P1;SDS_P2;PMS_P1;PMS_P2;Temp;Humidity;BMP_temperature;BMP_pressure;BME280_temperature;BME280_humidity;BME280_pressure;Samples;Min_cycle;Max_cycle;Signal;HPM_P1;HPM_P2
2022/03/09 00:01:18;;;;;;;17.58;10.25;;;-2.50;72.20;;;;;;6214602;23;20020;-86
2022/03/09 00:04:06;;;;;;;20.33;11.02;;;-2.60;70.80;;;;;;6216491;23;20025;-86
2022/03/09 00:06:53;;;;;;;22.30;11.25;;;-2.60;70.70;;;;;;6215116;23;20474;-85
2022/03/09 00:09:44;;;;;;;19.65;11.45;;;-2.70;67.00;;;;;;6217470;23;20136;-85
2022/03/09 00:12:31;;;;;;;20.92;11.32;;;-2.70;67.10;;;;;;6216252;23;20095;-86
2022/03/09 00:15:19;;;;;;;19.67;10.30;;;-2.70;56.50;;;;;;6217832;23;20111;-86
2022/03/09 00:18:06;;;;;;;19.55;10.98;;;-2.70;99.90;;;;;;6215122;23;20024;-85
2022/03/09 00:20:53;;;;;;;18.92;10.60;;;-2.60;99.90;;;;;;6216746;23;20043;-86
2022/03/09 00:23:41;;;;;;;18.35;11.15;;;-2.70;99.90;;;;;;6215627;23;20036;-86
2022/03/09 00:26:28;;;;;;;18.63;10.85;;;-2.70;99.90;;;;;;6215772;23;20032;-86
2022/03/09 00:29:15;;;;;;;20.00;11.07;;;-2.70;99.90;;;;;;6219871;23;20038;-85
2022/03/09 00:32:08;;;;;;;22.45;11.25;;;-2.60;99.90;;;;;;6192697;23;20079;-86
2022/03/09 00:34:56;;;;;;;19.38;10.82;;;-2.60;99.90;;;;;;6192298;23;20032;-83
2022/03/09 00:37:43;;;;;;;19.92;10.48;;;-2.70;99.90;;;;;;6217289;23;20116;-85
2022/03/09 00:40:32;;;;;;;19.58;10.00;;;-2.80;99.90;;;;;;6217210;23;20035;-85
2022/03/09 00:43:20;;;;;;;22.90;11.27;;;-2.80;99.90;;;;;;6214529;23;20021;-84
2022/03/09 00:46:07;;;;;;;27.15;12.60;;;-2.90;99.90;;;;;;6215012;23;20020;-83
2022/03/09 00:48:57;;;;;;;25.75;13.77;;;-2.80;99.90;;;;;;6214389;23;20052;-84
2022/03/09 00:51:44;;;;;;;19.80;10.77;;;-2.80;99.90;;;;;;6216028;23;20595;-86
2022/03/09 00:54:34;;;;;;;24.75;12.85;;;-2.80;1.00;;;;;;6215199;23;20024;-85
2022/03/09 00:57:24;;;;;;;23.05;12.00;;;-2.80;1.00;;;;;;6196760;23;20035;-85
2022/03/09 01:00:18;;;;;;;30.13;13.13;;;-2.80;1.00;;;;;;6216791;23;20044;-85
2022/03/09 01:03:05;;;;;;;24.83;12.07;;;-2.80;99.90;;;;;;6195926;23;20086;-84
2022/03/09 01:05:53;;;;;;;32.40;11.63;;;-2.80;99.90;;;;;;6219434;23;20032;-85
2022/03/09 01:08:40;;;;;;;23.77;10.63;;;-2.80;99.90;;;;;;6197301;23;20079;-83
2022/03/09 01:11:28;;;;;;;21.20;10.85;;;-2.90;1.00;;;;;;6221747;23;20024;-84
2022/03/09 01:14:18;;;;;;;19.45;9.98;;;-3.00;1.00;;;;;;6205659;23;20059;-83
2022/03/09 01:17:05;;;;;;;27.38;13.82;;;-2.90;1.00;;;;;;6219097;23;20331;-86
2022/03/09 01:19:54;;;;;;;36.60;16.23;;;-2.90;1.00;;;;;;6220330;23;20056;-83
2022/03/09 01:22:41;;;;;;;32.28;15.40;;;-2.90;1.00;;;;;;6196349;23;20028;-84
2022/03/09 01:25:28;;;;;;;23.70;12.60;;;-3.00;99.90;;;;;;6217609;23;20021;-84
2022/03/09 01:28:15;;;;;;;22.08;11.40;;;-3.00;99.90;;;;;;6217614;23;20102;-84
2022/03/09 01:31:05;;;;;;;28.48;11.85;;;-3.00;99.90;;;;;;6196776;23;20036;-85
2022/03/09 01:33:58;;;;;;;23.98;10.60;;;-3.10;99.90;;;;;;6217255;23;20029;-85
2022/03/09 01:36:46;;;;;;;16.92;10.00;;;-3.10;99.90;;;;;;6217113;23;20035;-85
2022/03/09 01:39:33;;;;;;;14.13;9.45;;;-3.10;99.90;;;;;;6231862;23;20021;-84
2022/03/09 01:42:21;;;;;;;16.30;9.38;;;-3.10;99.90;;;;;;6233401;23;20024;-84
2022/03/09 01:45:14;;;;;;;18.25;8.45;;;-3.00;99.90;;;;;;6232844;23;20078;-84
2022/03/09 01:48:02;;;;;;;18.15;8.65;;;-2.90;99.90;;;;;;6211741;23;20036;-84
2022/03/09 01:50:50;;;;;;;19.52;9.95;;;-2.80;96.70;;;;;;6211169;23;20029;-84
2022/03/09 01:53:37;;;;;;;17.52;9.00;;;-2.80;99.90;;;;;;6233086;23;20036;-83
2022/03/09 01:56:26;;;;;;;19.52;8.73;;;-2.80;99.90;;;;;;6233905;23;20111;-85
2022/03/09 01:59:15;;;;;;;17.27;9.52;;;-2.70;99.90;;;;;;6233649;23;20424;-84
2022/03/09 02:02:02;;;;;;;18.55;8.77;;;-2.70;99.90;;;;;;6233602;23;20075;-85
2022/03/09 02:04:52;;;;;;;14.55;8.02;;;-2.50;99.90;;;;;;6233430;23;20035;-85
2022/03/09 02:10:47;;;;;;;18.75;8.20;;;-2.40;90.60;;;;;;6223083;22;20031;-86
2022/03/09 02:13:38;;;;;;;18.67;8.07;;;-2.30;61.80;;;;;;6238158;22;20008;-82
2022/03/09 02:16:26;;;;;;;19.08;7.90;;;-2.30;43.80;;;;;;6248543;22;20115;-82
2022/03/09 02:19:13;;;;;;;14.77;7.97;;;-2.30;74.00;;;;;;6230814;22;20016;-81
2022/03/09 02:22:07;;;;;;;21.27;9.13;;;-2.20;38.00;;;;;;6250606;22;20012;-82
2022/03/09 02:24:55;;;;;;;17.70;9.68;;;-2.10;47.00;;;;;;6271579;22;20024;-81
2022/03/09 02:27:43;;;;;;;16.55;8.82;;;-2.30;58.70;;;;;;6272691;22;20024;-83
2022/03/09 02:30:32;;;;;;;12.73;8.13;;;-2.50;88.30;;;;;;6238709;22;20050;-83
2022/03/09 02:33:19;;;;;;;17.35;8.18;;;-2.50;95.50;;;;;;6267277;22;20027;-84
2022/03/09 02:36:06;;;;;;;14.35;8.80;;;-2.60;99.90;;;;;;6291957;22;20032;-83
2022/03/09 02:38:54;;;;;;;15.93;8.63;;;-2.80;79.10;;;;;;6289474;22;20028;-85
2022/03/09 02:41:41;;;;;;;20.48;9.60;;;-2.90;79.40;;;;;;6269484;22;20055;-85
2022/03/09 02:44:29;;;;;;;19.83;9.75;;;-2.90;99.90;;;;;;6269671;22;20059;-85
2022/03/09 02:47:16;;;;;;;17.48;8.95;;;-3.00;99.90;;;;;;6291285;22;20069;-82
2022/03/09 02:50:04;;;;;;;17.98;9.57;;;-3.20;99.90;;;;;;6280029;22;20015;-83
2022/03/09 02:52:51;;;;;;;18.27;9.68;;;-3.20;99.90;;;;;;6299005;22;20050;-84
2022/03/09 02:55:39;;;;;;;19.65;10.40;;;-3.30;99.90;;;;;;6302580;22;20054;-83
2022/03/09 02:58:27;;;;;;;18.58;9.32;;;-3.40;1.00;;;;;;6293317;22;20085;-84
2022/03/09 03:01:14;;;;;;;22.60;10.10;;;-3.40;49.90;;;;;;6265083;22;20024;-83
2022/03/09 03:04:02;;;;;;;16.92;9.27;;;-3.50;99.90;;;;;;6266910;22;20028;-84
2022/03/09 03:06:50;;;;;;;20.25;9.27;;;-3.60;99.90;;;;;;6287553;22;20024;-84
2022/03/09 03:09:37;;;;;;;22.63;9.32;;;-3.60;1.00;;;;;;6266785;22;20054;-84
2022/03/09 03:12:24;;;;;;;19.08;8.43;;;-3.60;99.90;;;;;;6289220;22;20077;-84
2022/03/09 03:15:12;;;;;;;16.27;9.18;;;-3.70;99.90;;;;;;6291681;22;20024;-84
2022/03/09 03:18:01;;;;;;;17.13;9.85;;;-3.70;99.90;;;;;;6289198;22;20085;-85
2022/03/09 03:20:54;;;;;;;17.95;8.93;;;-3.70;1.00;;;;;;6287940;22;20028;-84
2022/03/09 03:23:43;;;;;;;16.67;10.15;;;-3.80;1.00;;;;;;6267755;22;20016;-83
2022/03/09 03:26:30;;;;;;;16.48;9.00;;;-3.80;1.00;;;;;;6289532;22;20024;-86
2022/03/09 03:29:17;;;;;;;21.63;9.10;;;-3.80;1.00;;;;;;6282228;22;20019;-83
2022/03/09 03:32:04;;;;;;;16.75;9.07;;;-3.80;1.00;;;;;;6275280;22;20023;-85
2022/03/09 03:34:52;;;;;;;19.70;9.38;;;-3.80;1.00;;;;;;6278847;22;20048;-84
2022/03/09 03:37:42;;;;;;;19.48;9.27;;;-3.80;1.00;;;;;;6279610;22;20122;-83
2022/03/09 03:40:32;;;;;;;17.00;10.18;;;-3.80;99.90;;;;;;6254268;22;20092;-84
2022/03/09 03:43:19;;;;;;;18.27;8.75;;;-3.80;1.00;;;;;;6281088;22;20375;-85
2022/03/09 03:46:08;;;;;;;17.92;9.60;;;-3.80;1.00;;;;;;6290121;22;20028;-83
2022/03/09 03:48:58;;;;;;;19.30;9.48;;;-3.80;1.00;;;;;;6291526;22;20024;-84
2022/03/09 03:51:45;;;;;;;16.08;9.13;;;-3.90;99.90;;;;;;6281505;22;20116;-85
2022/03/09 03:54:35;;;;;;;19.73;10.20;;;-3.90;99.90;;;;;;6255188;22;20137;-84
2022/03/09 03:57:22;;;;;;;18.45;9.32;;;-4.10;99.90;;;;;;6276396;22;20065;-84
2022/03/09 04:00:10;;;;;;;15.30;8.68;;;-4.10;99.90;;;;;;6276496;22;20063;-85
2022/03/09 04:02:57;;;;;;;17.77;9.57;;;-4.10;99.90;;;;;;6277447;22;20024;-83
2022/03/09 04:05:45;;;;;;;25.40;11.15;;;-4.20;1.00;;;;;;6275048;22;20024;-84
2022/03/09 04:08:33;;;;;;;22.35;10.10;;;-4.20;99.90;;;;;;6277232;22;20024;-83
2022/03/09 04:11:30;;;;;;;23.45;9.75;;;-4.30;99.90;;;;;;6276371;22;20034;-83
2022/03/09 04:14:22;;;;;;;19.85;10.13;;;-4.20;99.90;;;;;;6277591;22;20028;-83
2022/03/09 04:17:09;;;;;;;20.63;10.45;;;-4.30;99.90;;;;;;6273536;22;20028;-83
2022/03/09 04:19:57;;;;;;;23.13;10.60;;;-4.30;99.90;;;;;;6252459;22;20023;-83
2022/03/09 04:22:47;;;;;;;28.85;14.10;;;-4.20;99.90;;;;;;6254813;22;20050;-83
2022/03/09 04:25:35;;;;;;;21.85;11.65;;;-4.20;99.90;;;;;;6275469;22;20020;-84
2022/03/09 04:28:25;;;;;;;22.13;11.93;;;-4.20;99.90;;;;;;6276108;22;20023;-84
2022/03/09 04:31:13;;;;;;;22.60;11.07;;;-4.20;99.90;;;;;;6276068;22;20331;-83
2022/03/09 04:34:00;;;;;;;23.27;11.15;;;-4.20;99.90;;;;;;6277334;22;20019;-83
2022/03/09 04:36:48;;;;;;;21.55;10.93;;;-4.30;99.90;;;;;;6230869;22;20027;-83
2022/03/09 04:39:35;;;;;;;23.00;11.20;;;-4.30;99.90;;;;;;6253835;22;20032;-84
2022/03/09 04:42:22;;;;;;;20.83;11.07;;;-4.30;99.90;;;;;;6275675;22;20032;-83
2022/03/09 04:45:14;;;;;;;24.02;10.85;;;-4.40;99.90;;;;;;6277331;22;20430;-82
2022/03/09 04:48:04;;;;;;;27.13;11.95;;;-4.50;99.90;;;;;;6254590;22;20077;-84
2022/03/09 04:50:54;;;;;;;18.02;10.43;;;-4.50;99.90;;;;;;6275919;22;20032;-82
2022/03/09 04:53:44;;;;;;;22.02;11.52;;;-4.50;99.90;;;;;;6276947;22;20036;-83
2022/03/09 04:56:33;;;;;;;21.23;11.48;;;-4.50;99.90;;;;;;6275580;22;20102;-83
2022/03/09 04:59:20;;;;;;;22.92;11.65;;;-4.60;99.90;;;;;;6276776;22;20043;-82
2022/03/09 05:02:08;;;;;;;21.98;11.55;;;-4.70;99.90;;;;;;6253484;22;20054;-82
2022/03/09 05:04:55;;;;;;;26.88;13.15;;;-4.70;99.90;;;;;;6254774;22;20441;-83
2022/03/09 05:07:42;;;;;;;25.05;12.48;;;-4.70;99.90;;;;;;6251817;22;20399;-83
2022/03/09 05:10:29;;;;;;;26.30;12.77;;;-4.70;99.90;;;;;;6276444;22;20032;-83
2022/03/09 05:13:19;;;;;;;27.38;12.82;;;-4.80;99.90;;;;;;6252294;22;20054;-83
2022/03/09 05:16:08;;;;;;;29.42;13.25;;;-4.70;99.90;;;;;;6274770;22;20089;-82
2022/03/09 05:18:56;;;;;;;25.13;12.48;;;-4.70;99.90;;;;;;6274967;22;20050;-82
2022/03/09 05:21:44;;;;;;;25.95;13.07;;;-4.70;99.90;;;;;;6254201;22;20273;-82
2022/03/09 05:24:51;;;;;;;23.27;12.43;;;-4.80;99.90;;;;;;6276604;22;20470;-82
2022/03/09 05:27:40;;;;;;;27.38;12.55;;;-4.80;99.90;;;;;;6253529;22;20085;-82
2022/03/09 05:30:37;;;;;;;29.08;13.63;;;-4.70;99.90;;;;;;6275867;22;20023;-82
2022/03/09 05:33:24;;;;;;;29.58;13.68;;;-4.60;99.90;;;;;;6253280;22;20063;-83
2022/03/09 05:36:11;;;;;;;32.50;14.38;;;-4.60;99.90;;;;;;6251483;22;20028;-84
2022/03/09 05:50:24;;;;;;;22.27;11.15;;;-4.30;99.90;;;;;;6134855;23;20032;31
2022/03/09 05:53:39;;;;;;;25.92;12.73;;;-4.40;99.90;;;;;;6096994;23;20030;-83
2022/03/09 05:56:28;;;;;;;25.45;13.50;;;-4.50;99.90;;;;;;6096828;23;20038;-84
2022/03/09 05:59:17;;;;;;;24.70;13.35;;;-4.60;99.90;;;;;;6094525;23;20161;-82
2022/03/09 06:02:09;;;;;;;22.88;12.68;;;-4.70;99.90;;;;;;6094908;23;20033;-82
2022/03/09 06:09:15;;;;;;;26.15;12.82;;;-4.60;99.90;;;;;;6095438;23;20073;-84
2022/03/09 06:12:03;;;;;;;24.98;12.23;;;-4.70;99.90;;;;;;6096580;23;20054;-82
2022/03/09 06:14:50;;;;;;;27.35;13.48;;;-4.70;99.90;;;;;;6097755;23;20037;-82
2022/03/09 06:17:49;;;;;;;29.02;14.60;;;-4.60;99.90;;;;;;6098022;23;20038;-81
2022/03/09 06:20:36;;;;;;;32.63;16.25;;;-4.50;99.90;;;;;;6078329;23;20027;-83
2022/03/09 06:23:24;;;;;;;33.47;16.60;;;-4.40;99.90;;;;;;6097280;23;20141;-83
2022/03/09 06:26:13;;;;;;;32.15;15.45;;;-4.20;99.90;;;;;;6096239;23;20383;-83
2022/03/09 06:29:00;;;;;;;34.60;14.75;;;-4.10;99.90;;;;;;6098402;23;20074;-83
2022/03/09 06:31:47;;;;;;;31.02;13.05;;;-3.90;99.90;;;;;;6097345;23;20500;-81
2022/03/09 06:34:34;;;;;;;25.45;13.57;;;-3.50;99.90;;;;;;6097556;23;20062;-83
2022/03/09 06:37:24;;;;;;;30.70;14.60;;;-3.30;99.90;;;;;;6077443;23;20075;-82
2022/03/09 06:40:12;;;;;;;30.02;13.00;;;-3.10;99.90;;;;;;6075390;23;20034;-82
2022/03/09 06:43:01;;;;;;;27.23;13.13;;;-2.90;99.90;;;;;;6077016;23;20330;-81
2022/03/09 06:45:49;;;;;;;31.30;14.32;;;-2.70;99.90;;;;;;6097490;23;20041;-85
2022/03/09 06:48:42;;;;;;;25.80;14.05;;;-2.50;99.90;;;;;;6096045;23;20583;-82
2022/03/09 06:51:31;;;;;;;27.58;13.93;;;-2.20;99.90;;;;;;6097368;23;20034;-83
2022/03/09 06:58:28;;;;;;;29.48;14.15;;;-1.00;99.90;;;;;;6096025;23;20010;-82
2022/03/09 07:01:15;;;;;;;25.15;13.98;;;-0.30;97.90;;;;;;6096831;23;20022;-82
2022/03/09 07:04:03;;;;;;;26.60;14.30;;;0.10;95.00;;;;;;6095206;23;20034;-81
2022/03/09 07:06:51;;;;;;;29.23;14.43;;;0.30;92.70;;;;;;6096747;23;20026;-82
2022/03/09 07:09:38;;;;;;;29.67;14.23;;;0.50;91.20;;;;;;6098514;23;20053;-82
2022/03/09 07:12:25;;;;;;;24.52;14.25;;;0.60;90.90;;;;;;6094450;23;20697;-82
2022/03/09 07:15:16;;;;;;;23.27;13.13;;;0.60;89.90;;;;;;6095415;23;20670;-82
2022/03/09 07:18:04;;;;;;;32.13;14.73;;;0.70;88.40;;;;;;6098380;23;20033;-81
2022/03/09 07:20:52;;;;;;;26.88;14.35;;;0.70;89.70;;;;;;6075504;23;20023;-80
2022/03/09 07:23:40;;;;;;;32.33;14.07;;;0.80;90.80;;;;;;6096587;23;20038;-82
2022/03/09 07:26:28;;;;;;;24.17;14.55;;;0.90;90.10;;;;;;6097522;23;20038;-82
2022/03/09 07:29:17;;;;;;;23.48;13.98;;;1.10;87.20;;;;;;6096300;23;20049;-82
2022/03/09 07:32:05;;;;;;;23.52;13.38;;;1.60;84.50;;;;;;6096867;23;20045;-83
2022/03/09 07:34:58;;;;;;;23.98;13.68;;;2.10;80.10;;;;;;6096866;23;20109;-83
2022/03/09 07:37:46;;;;;;;21.88;12.98;;;2.40;77.50;;;;;;6096134;23;20041;-83
2022/03/09 07:40:35;;;;;;;32.08;14.20;;;2.70;76.10;;;;;;6075856;23;20054;-83
2022/03/09 07:43:23;;;;;;;27.45;14.65;;;3.20;76.00;;;;;;6095740;23;20033;-83
2022/03/09 07:46:11;;;;;;;20.67;12.70;;;3.50;74.80;;;;;;6075881;23;20108;-83
2022/03/09 07:48:58;;;;;;;25.95;13.88;;;3.90;73.20;;;;;;6097665;23;20041;-83
2022/03/09 07:51:46;;;;;;;21.50;12.93;;;4.10;70.70;;;;;;6096001;23;20133;-83
2022/03/09 07:54:34;;;;;;;20.17;12.20;;;4.40;67.90;;;;;;6075977;23;20033;-83
2022/03/09 07:57:23;;;;;;;24.05;13.68;;;4.40;68.00;;;;;;6098744;23;20171;-81
2022/03/09 08:00:11;;;;;;;28.60;13.93;;;4.40;67.70;;;;;;6096833;23;20031;-82
2022/03/09 08:02:58;;;;;;;24.17;13.45;;;4.50;67.10;;;;;;6096118;23;20391;-82
2022/03/09 08:06:06;;;;;;;26.13;13.38;;;4.70;65.20;;;;;;6095438;23;20090;-82
2022/03/09 08:08:55;;;;;;;22.63;13.45;;;4.80;64.50;;;;;;6098739;23;20107;-82
2022/03/09 08:11:46;;;;;;;24.58;14.27;;;5.10;64.00;;;;;;6096781;23;20062;-81
2022/03/09 08:14:34;;;;;;;24.95;12.48;;;5.60;63.00;;;;;;6095112;23;20038;-84
2022/03/09 08:17:22;;;;;;;19.77;12.57;;;5.90;61.00;;;;;;6097231;23;20147;-82
2022/03/09 08:20:11;;;;;;;23.83;13.50;;;6.50;58.90;;;;;;6096003;23;20042;-85
2022/03/09 08:22:59;;;;;;;20.65;12.98;;;7.20;56.80;;;;;;6096938;23;20037;-84
2022/03/09 08:25:46;;;;;;;19.33;13.40;;;7.80;54.80;;;;;;6098165;23;20053;-84
2022/03/09 08:28:35;;;;;;;23.92;13.15;;;8.50;53.10;;;;;;6076105;23;20027;-84
2022/03/09 08:31:26;;;;;;;18.90;12.20;;;9.30;50.10;;;;;;6075977;23;20057;-83
2022/03/09 08:34:14;;;;;;;19.90;13.40;;;9.30;48.60;;;;;;6097066;23;20053;-82
2022/03/09 08:37:02;;;;;;;18.35;12.40;;;9.60;48.20;;;;;;6096602;23;20030;-83
2022/03/09 08:39:53;;;;;;;23.35;13.00;;;9.50;47.80;;;;;;6096589;23;20031;-84
2022/03/09 08:42:40;;;;;;;20.27;13.00;;;9.30;48.30;;;;;;6094053;23;20049;-82
2022/03/09 08:45:28;;;;;;;19.88;12.05;;;9.10;48.70;;;;;;6095947;23;20033;-81
2022/03/09 08:48:18;;;;;;;17.75;12.07;;;9.30;48.90;;;;;;6095544;23;20426;-82
2022/03/09 08:51:07;;;;;;;17.67;12.88;;;9.40;48.00;;;;;;6095430;23;20073;-82
2022/03/09 08:53:55;;;;;;;15.73;11.77;;;9.60;47.60;;;;;;6096277;23;20453;-82
2022/03/09 08:56:43;;;;;;;17.08;11.70;;;9.50;47.60;;;;;;6095536;23;20443;-82
2022/03/09 08:59:33;;;;;;;20.10;12.68;;;9.90;46.80;;;;;;6098051;23;20041;-83
2022/03/09 09:02:23;;;;;;;22.55;12.50;;;10.20;46.60;;;;;;6098131;23;20026;-82
2022/03/09 09:05:16;;;;;;;22.35;12.10;;;10.70;44.40;;;;;;6096557;23;20124;-83
2022/03/09 09:08:04;;;;;;;15.77;11.52;;;10.70;44.50;;;;;;6095570;23;20438;-82
2022/03/09 09:10:53;;;;;;;16.08;11.07;;;11.00;44.10;;;;;;6095621;23;20038;-83
2022/03/09 09:13:43;;;;;;;17.70;12.02;;;11.10;43.00;;;;;;6094899;23;20030;-82
2022/03/09 09:16:31;;;;;;;19.23;12.10;;;11.40;42.90;;;;;;6096201;23;20022;-84
2022/03/09 09:19:19;;;;;;;18.38;11.57;;;12.00;41.10;;;;;;6098195;23;20030;-83
2022/03/09 09:22:07;;;;;;;19.15;11.82;;;12.80;40.40;;;;;;6099394;23;20055;-83
2022/03/09 09:25:01;;;;;;;18.10;12.27;;;13.10;39.10;;;;;;6098064;23;20121;-83
2022/03/09 09:27:50;;;;;;;15.48;11.52;;;13.30;38.30;;;;;;6098620;23;20035;-82
2022/03/09 09:30:38;;;;;;;18.33;11.20;;;13.40;40.20;;;;;;6100493;23;20094;-85
2022/03/09 09:33:26;;;;;;;17.80;11.10;;;14.50;36.80;;;;;;6097992;23;20030;-83
2022/03/09 09:36:13;;;;;;;15.57;10.88;;;14.50;36.40;;;;;;6105468;23;20030;-82
2022/03/09 09:39:06;;;;;;;15.95;11.13;;;14.10;36.00;;;;;;6100845;23;20063;-83
2022/03/09 09:41:57;;;;;;;17.98;11.68;;;14.40;36.10;;;;;;6100908;23;20019;-83
2022/03/09 09:44:45;;;;;;;16.92;10.98;;;15.40;34.40;;;;;;6099819;23;20070;-84
2022/03/09 09:47:36;;;;;;;17.45;12.15;;;15.40;32.50;;;;;;6102449;23;20090;-85
2022/03/09 09:50:27;;;;;;;18.73;13.48;;;15.20;32.30;;;;;;6101226;23;20030;-83
2022/03/09 09:53:16;;;;;;;19.20;13.13;;;14.80;32.60;;;;;;6099646;23;20060;-82
2022/03/09 09:56:06;;;;;;;19.08;13.43;;;13.40;32.80;;;;;;6099732;23;20079;-85
2022/03/09 09:58:55;;;;;;;19.05;12.95;;;13.20;33.00;;;;;;6076785;23;20027;-83
2022/03/09 10:01:45;;;;;;;19.15;12.88;;;13.20;34.20;;;;;;6078746;23;20131;-83
2022/03/09 10:04:33;;;;;;;20.05;12.32;;;13.60;34.00;;;;;;6101281;23;20022;-85
2022/03/09 10:07:21;;;;;;;20.25;12.90;;;13.70;34.50;;;;;;6099585;23;20098;-84
2022/03/09 10:10:18;;;;;;;17.67;12.45;;;14.40;32.40;;;;;;6106005;23;20026;-82
2022/03/09 10:13:26;;;;;;;17.80;12.95;;;14.50;31.90;;;;;;6100624;23;20034;-83
2022/03/09 10:16:20;;;;;;;17.98;12.43;;;14.70;32.40;;;;;;6100589;23;20034;-83
2022/03/09 10:19:12;;;;;;;21.02;13.13;;;15.00;31.20;;;;;;6097680;23;20034;-84
2022/03/09 10:22:24;;;;;;;19.45;12.50;;;15.70;30.00;;;;;;6101811;23;20113;-84
2022/03/09 10:25:35;;;;;;;21.13;13.85;;;16.60;29.90;;;;;;6113792;23;20082;-83
2022/03/09 10:28:28;;;;;;;17.35;13.23;;;17.30;25.50;;;;;;6109746;23;20042;-84
2022/03/09 10:31:34;;;;;;;20.63;12.65;;;16.70;25.50;;;;;;6113257;23;20050;-83
2022/03/09 10:34:29;;;;;;;19.30;13.30;;;16.90;26.40;;;;;;6112777;23;20042;-84
2022/03/09 10:37:17;;;;;;;20.75;13.38;;;17.50;25.10;;;;;;6115760;23;20300;-84
2022/03/09 10:40:12;;;;;;;16.02;13.02;;;17.80;24.60;;;;;;6092115;23;20023;-83
2022/03/09 10:43:17;;;;;;;18.08;12.65;;;18.30;24.30;;;;;;6114501;23;20034;-84
2022/03/09 10:46:11;;;;;;;17.25;12.32;;;19.80;23.40;;;;;;6115021;23;20030;-85
2022/03/09 10:49:02;;;;;;;14.55;11.75;;;20.40;24.00;;;;;;6092897;23;20681;-86
2022/03/09 10:51:52;;;;;;;14.93;11.52;;;20.90;24.20;;;;;;6110016;23;20119;-85
2022/03/09 10:54:42;;;;;;;15.50;11.50;;;21.80;22.20;;;;;;6115885;23;20022;-84
2022/03/09 10:57:33;;;;;;;15.73;11.80;;;21.50;21.00;;;;;;6113269;23;20026;-85
2022/03/09 11:00:37;;;;;;;15.43;11.43;;;20.90;23.30;;;;;;6095454;23;20026;-86
2022/03/09 11:03:42;;;;;;;13.35;11.30;;;22.00;22.50;;;;;;6115952;23;20064;-85
2022/03/09 11:06:36;;;;;;;13.13;10.77;;;21.60;21.40;;;;;;6116950;23;20085;-86
2022/03/09 11:09:24;;;;;;;15.48;11.90;;;21.20;21.40;;;;;;6114975;23;20085;-80
2022/03/09 11:12:16;;;;;;;13.70;10.90;;;20.50;21.80;;;;;;6116923;23;20069;-83
2022/03/09 11:15:07;;;;;;;13.95;11.52;;;20.30;22.60;;;;;;6119906;23;20018;-81
2022/03/09 11:17:56;;;;;;;16.83;11.55;;;20.80;22.40;;;;;;6101086;23;20497;-82
2022/03/09 11:20:47;;;;;;;15.18;11.32;;;21.40;24.00;;;;;;6116807;23;20026;-81
2022/03/09 11:23:50;;;;;;;14.73;11.45;;;21.10;23.50;;;;;;6098255;23;20065;-82
2022/03/09 11:27:07;;;;;;;17.00;11.30;;;21.60;22.00;;;;;;6119214;23;20058;-83
2022/03/09 11:30:00;;;;;;;16.02;10.73;;;21.60;23.40;;;;;;6092692;23;20034;-81
2022/03/09 11:32:49;;;;;;;12.63;10.35;;;20.60;23.60;;;;;;6109279;23;20022;-83
2022/03/09 11:35:39;;;;;;;15.18;10.68;;;20.50;25.50;;;;;;6113566;23;20033;-84
2022/03/09 11:38:33;;;;;;;11.98;10.27;;;20.60;22.60;;;;;;6113676;23;20030;-87
2022/03/09 11:41:22;;;;;;;12.73;9.98;;;21.00;21.00;;;;;;6097558;23;20025;-84
2022/03/09 11:44:19;;;;;;;13.13;11.13;;;21.50;20.50;;;;;;6116340;23;20040;-84
2022/03/09 11:47:07;;;;;;;13.38;10.27;;;22.30;21.70;;;;;;6167706;22;20011;-85
2022/03/09 11:49:55;;;;;;;16.20;11.10;;;22.30;20.70;;;;;;6269030;22;20019;-85
2022/03/09 11:53:00;;;;;;;12.20;10.00;;;23.20;19.80;;;;;;6250834;23;20032;-86
2022/03/09 11:55:48;;;;;;;10.23;7.88;;;23.00;20.10;;;;;;6248894;23;20012;-85
2022/03/09 11:59:08;;;;;;;12.52;9.93;;;24.00;15.90;;;;;;6248586;23;20056;-85
2022/03/09 12:01:58;;;;;;;15.07;9.15;;;23.70;19.00;;;;;;6236374;23;20063;-86
2022/03/09 12:04:53;;;;;;;11.60;9.45;;;23.20;17.70;;;;;;6264315;22;20062;-85
2022/03/09 12:07:42;;;;;;;13.82;9.52;;;21.90;18.80;;;;;;6289268;22;20079;-86
2022/03/09 12:10:43;;;;;;;12.18;9.45;;;22.20;19.70;;;;;;6267664;22;20126;-85
2022/03/09 12:13:44;;;;;;;14.13;9.75;;;21.80;19.10;;;;;;6267032;22;20027;-84
2022/03/09 12:16:32;;;;;;;14.30;11.73;;;22.40;19.60;;;;;;6266268;22;20161;-84
2022/03/09 12:19:23;;;;;;;23.05;13.52;;;21.60;22.00;;;;;;6269202;22;20392;-86
2022/03/09 12:22:12;;;;;;;16.75;11.57;;;21.00;23.50;;;;;;6261830;22;20419;-83
2022/03/09 12:25:43;;;;;;;19.08;12.30;;;20.70;24.20;;;;;;6277097;22;20027;-83
2022/03/09 12:28:35;;;;;;;18.48;12.40;;;20.30;23.60;;;;;;6260087;22;20034;-83
2022/03/09 12:31:26;;;;;;;16.50;12.18;;;20.10;24.70;;;;;;6287484;22;20020;-84
2022/03/09 12:34:25;;;;;;;17.85;12.35;;;20.20;23.90;;;;;;6259934;22;20035;-84
2022/03/09 12:37:15;;;;;;;15.45;11.35;;;20.10;24.70;;;;;;6254214;22;20085;-85
2022/03/09 12:40:03;;;;;;;20.52;12.68;;;20.30;23.80;;;;;;6251942;22;20441;-84
2022/03/09 12:43:00;;;;;;;22.38;13.68;;;20.90;22.70;;;;;;6254893;22;20027;-85
2022/03/09 12:46:05;;;;;;;15.45;11.98;;;21.20;23.40;;;;;;6277025;22;20032;-85
2022/03/09 12:49:13;;;;;;;15.13;12.30;;;21.80;22.70;;;;;;6251220;22;20292;-83
2022/03/09 12:52:38;;;;;;;18.85;12.13;;;21.40;23.00;;;;;;6275566;22;20027;-85
2022/03/09 12:55:31;;;;;;;20.35;13.35;;;20.60;23.40;;;;;;6276414;22;20725;-88
2022/03/09 12:58:28;;;;;;;19.25;12.93;;;20.90;23.90;;;;;;6258659;22;20028;-86
2022/03/09 13:01:19;;;;;;;25.05;12.82;;;20.40;24.40;;;;;;6259019;22;20434;-86
2022/03/09 13:04:07;;;;;;;19.85;13.48;;;20.80;23.90;;;;;;6254681;22;20300;-86
2022/03/09 13:07:15;;;;;;;21.65;13.68;;;20.80;23.80;;;;;;6277744;22;20277;-86
2022/03/09 13:10:12;;;;;;;17.15;13.18;;;20.40;24.00;;;;;;6277115;22;20087;-86
2022/03/09 13:16:16;;;;;;;19.05;12.70;;;22.00;21.40;;;;;;6256589;22;20019;-85
2022/03/09 13:19:04;;;;;;;16.45;12.45;;;22.00;22.40;;;;;;6276888;22;20095;-85
2022/03/09 13:21:52;;;;;;;19.77;13.00;;;22.30;21.90;;;;;;6257895;22;20087;-85
2022/03/09 13:25:08;;;;;;;17.60;12.50;;;22.40;21.60;;;;;;6256110;22;20020;-87
2022/03/09 13:28:10;;;;;;;18.75;13.27;;;24.10;19.50;;;;;;6158325;22;20033;-84
2022/03/09 13:31:01;;;;;;;16.23;13.27;;;23.60;20.00;;;;;;6278229;22;20046;-85
2022/03/09 13:34:09;;;;;;;18.10;12.73;;;23.70;19.80;;;;;;6279632;22;20038;-85
2022/03/09 13:37:04;;;;;;;21.80;14.25;;;23.30;20.30;;;;;;6279302;22;20023;-84
2022/03/09 13:39:54;;;;;;;23.60;12.98;;;22.60;21.40;;;;;;6262405;22;20089;-86
2022/03/09 13:42:44;;;;;;;17.85;12.88;;;23.40;20.90;;;;;;6260980;22;20468;-86
2022/03/09 13:45:35;;;;;;;22.10;13.70;;;23.70;20.30;;;;;;6261677;22;20037;-84
2022/03/09 13:48:25;;;;;;;16.30;12.55;;;22.90;21.00;;;;;;6286831;22;20038;-84
2022/03/09 13:51:13;;;;;;;17.45;12.30;;;23.10;20.60;;;;;;6260495;22;20046;-85
2022/03/09 13:54:03;;;;;;;17.15;12.68;;;22.90;20.60;;;;;;6278583;22;20033;-82
2022/03/09 13:57:02;;;;;;;17.55;13.73;;;22.10;20.90;;;;;;6275956;22;20093;-85
2022/03/09 13:59:54;;;;;;;18.38;12.75;;;22.40;20.30;;;;;;6272372;22;20088;-82
2022/03/09 14:02:41;;;;;;;16.98;12.50;;;22.30;20.30;;;;;;6274937;22;20051;-83
2022/03/09 14:05:33;;;;;;;18.65;12.70;;;21.70;20.20;;;;;;6253975;22;20445;-83
2022/03/09 14:08:28;;;;;;;15.00;11.88;;;22.20;20.60;;;;;;6235320;22;20035;-83
2022/03/09 14:11:19;;;;;;;15.02;11.18;;;22.20;19.80;;;;;;6277787;22;20089;-83
2022/03/09 14:14:17;;;;;;;15.82;11.93;;;22.70;18.40;;;;;;6276839;22;20073;-83
2022/03/09 14:17:08;;;;;;;19.02;11.75;;;22.50;19.30;;;;;;6253604;22;20034;-84
2022/03/09 14:19:57;;;;;;;17.55;11.82;;;21.80;19.10;;;;;;6278167;22;20070;-85
2022/03/09 14:22:49;;;;;;;17.38;11.98;;;21.80;20.00;;;;;;6253897;22;20042;-87
2022/03/09 14:25:38;;;;;;;16.10;12.07;;;21.60;19.00;;;;;;6254649;22;20434;-84
2022/03/09 14:28:30;;;;;;;18.38;11.90;;;21.70;18.40;;;;;;6277137;22;20117;-86
2022/03/09 14:31:24;;;;;;;15.07;11.40;;;21.50;19.50;;;;;;6257056;22;20024;-85
2022/03/09 14:34:15;;;;;;;15.77;10.27;;;22.20;19.90;;;;;;6275061;22;20030;-85
2022/03/09 14:37:11;;;;;;;13.90;10.40;;;21.90;18.80;;;;;;6274664;22;20084;-87
2022/03/09 14:40:07;;;;;;;13.77;10.05;;;22.00;18.00;;;;;;6276037;22;20031;-83
2022/03/09 14:42:56;;;;;;;16.85;10.25;;;21.50;18.00;;;;;;6276723;22;20112;-85
2022/03/09 14:45:44;;;;;;;13.18;9.32;;;21.40;18.30;;;;;;6253532;22;20024;-84
2022/03/09 14:48:32;;;;;;;15.93;9.63;;;21.40;17.80;;;;;;6230880;22;20034;-86
2022/03/09 14:51:22;;;;;;;15.77;10.05;;;21.90;17.00;;;;;;6277492;22;20308;-85
2022/03/09 14:54:19;;;;;;;13.85;9.60;;;22.00;16.60;;;;;;6255088;22;20031;-83
2022/03/09 14:57:10;;;;;;;15.50;10.15;;;22.40;16.80;;;;;;6278837;22;20030;-85